Time;durP1;ratioP1;P1;durP2;ratioP2;P2;SDS_P1;SDS_P2;PMS_P1;PMS_P2;Temp;Humidity;BMP_temperature;BMP_pressure;BME280_temperature;BME280_humidity;BME280_pressure;Samples;Min_cycle;Max_cycle;Signal;HPM_P1;HPM_P2
2022/07/26 00:01:31;;;;;;;5.38;2.83;;;20.80;99.90;;;;;;5101737;27;20492;-70
2022/07/26 00:03:56;;;;;;;6.93;2.50;;;20.90;99.90;;;;;;5088099;28;20484;-72
2022/07/26 00:06:24;;;;;;;6.78;2.53;;;20.80;99.90;;;;;;5100973;27;20044;-72
2022/07/26 00:08:50;;;;;;;5.40;2.47;;;20.80;99.90;;;;;;5103810;28;20039;-70
2022/07/26 00:11:16;;;;;;;7.45;2.92;;;20.80;99.90;;;;;;5107302;27;20023;-70
2022/07/26 00:13:41;;;;;;;9.85;2.80;;;20.80;99.90;;;;;;5116960;27;20031;-71
2022/07/26 00:16:07;;;;;;;7.45;2.55;;;20.80;99.90;;;;;;5099952;27;20099;-73
2022/07/26 00:18:33;;;;;;;4.03;2.42;;;20.80;99.90;;;;;;5112062;27;20035;-72
2022/07/26 00:20:59;;;;;;;4.80;2.55;;;20.80;99.90;;;;;;5114358;27;20032;-75
2022/07/26 00:23:24;;;;;;;5.72;2.53;;;20.90;99.90;;;;;;5113067;28;20020;-70
2022/07/26 00:25:50;;;;;;;6.85;2.47;;;21.00;99.90;;;;;;5110389;27;20122;-70
2022/07/26 00:28:16;;;;;;;5.85;2.53;;;21.00;99.90;;;;;;5099460;27;20024;-69
2022/07/26 00:30:42;;;;;;;6.15;2.50;;;21.00;99.90;;;;;;5123792;27;20042;-71
2022/07/26 00:33:07;;;;;;;3.55;2.28;;;21.10;99.90;;;;;;5113301;27;20024;-69
2022/07/26 00:35:36;;;;;;;4.82;2.90;;;21.10;99.90;;;;;;5101477;28;20557;-70
2022/07/26 00:38:02;;;;;;;9.68;2.85;;;21.10;99.90;;;;;;5106020;27;20857;-76
2022/07/26 00:40:28;;;;;;;5.00;2.50;;;21.10;99.90;;;;;;5111261;27;20122;-70
2022/07/26 00:42:53;;;;;;;5.18;2.63;;;21.00;99.90;;;;;;5107908;28;20036;-72
2022/07/26 00:45:19;;;;;;;7.70;2.50;;;21.00;99.90;;;;;;5112766;27;20469;-74
2022/07/26 00:47:45;;;;;;;4.45;2.75;;;20.80;99.90;;;;;;5109488;28;20376;-71
2022/07/26 00:50:14;;;;;;;6.50;2.65;;;20.70;99.90;;;;;;5103862;27;20024;-70
2022/07/26 00:52:47;;;;;;;8.38;2.70;;;20.70;99.90;;;;;;5112850;28;20023;-72
2022/07/26 00:55:14;;;;;;;8.25;2.53;;;20.70;99.90;;;;;;5105006;27;20039;-70
2022/07/26 00:57:40;;;;;;;8.02;2.65;;;20.70;99.90;;;;;;5110085;27;20035;-70
2022/07/26 01:00:10;;;;;;;3.85;2.28;;;20.70;99.90;;;;;;5110636;27;20457;-71
2022/07/26 01:02:35;;;;;;;4.38;2.53;;;20.70;99.90;;;;;;5090180;28;20027;-71
2022/07/26 01:05:01;;;;;;;7.13;2.50;;;20.70;99.90;;;;;;5091812;28;20508;-75
2022/07/26 01:07:28;;;;;;;5.38;2.78;;;20.70;99.90;;;;;;5110860;27;20140;-74
2022/07/26 01:09:54;;;;;;;3.50;2.30;;;20.80;99.90;;;;;;5111157;28;20035;-73
2022/07/26 01:12:19;;;;;;;6.93;2.72;;;20.80;99.90;;;;;;5107350;27;20488;-70
2022/07/26 01:14:45;;;;;;;7.03;2.63;;;20.80;99.90;;;;;;5107695;27;20105;-72
2022/07/26 01:17:12;;;;;;;5.80;2.60;;;20.90;99.90;;;;;;5109638;28;20067;-70
2022/07/26 01:19:40;;;;;;;5.05;2.50;;;20.80;99.90;;;;;;5106672;27;20031;-72
2022/07/26 01:22:06;;;;;;;5.07;2.78;;;20.80;99.90;;;;;;5111254;27;20020;-75
2022/07/26 01:24:31;;;;;;;4.65;2.30;;;20.80;99.90;;;;;;5108811;27;20027;-70
2022/07/26 01:26:57;;;;;;;5.00;2.70;;;20.80;99.90;;;;;;5111277;28;20500;-70
2022/07/26 01:29:23;;;;;;;4.78;2.80;;;20.80;99.90;;;;;;5112355;27;20052;-71
2022/07/26 01:31:50;;;;;;;6.95;2.53;;;20.60;99.90;;;;;;5106602;27;20090;-71
2022/07/26 01:34:16;;;;;;;5.72;3.25;;;20.60;99.90;;;;;;5104391;27;20023;-70
2022/07/26 01:36:42;;;;;;;10.02;2.92;;;20.60;99.90;;;;;;5091380;28;20052;-70
2022/07/26 01:39:07;;;;;;;11.50;2.65;;;20.70;99.90;;;;;;5071439;28;20053;-71
2022/07/26 01:41:33;;;;;;;7.72;2.78;;;20.60;99.90;;;;;;5107102;27;20040;-74
2022/07/26 01:43:59;;;;;;;5.35;2.63;;;20.60;99.90;;;;;;5102320;27;20031;-73
2022/07/26 01:46:25;;;;;;;5.38;2.60;;;20.60;99.90;;;;;;5111734;27;20687;-74
2022/07/26 01:48:51;;;;;;;7.05;2.40;;;20.50;99.90;;;;;;5103844;27;20036;-71
2022/07/26 01:51:16;;;;;;;6.10;2.50;;;20.50;99.90;;;;;;5090208;27;20043;-71
2022/07/26 01:53:45;;;;;;;5.03;2.20;;;20.50;99.90;;;;;;5103277;27;20085;-70
2022/07/26 01:56:14;;;;;;;7.43;2.47;;;20.50;99.90;;;;;;5108807;27;20114;-70
2022/07/26 01:58:40;;;;;;;6.38;2.58;;;20.60;99.90;;;;;;5119012;27;20027;-70
2022/07/26 02:01:07;;;;;;;4.93;2.90;;;20.50;99.90;;;;;;5107990;27;20031;-74
2022/07/26 02:03:33;;;;;;;6.32;2.60;;;20.50;99.90;;;;;;5111213;28;20023;-71
2022/07/26 02:05:59;;;;;;;6.97;2.65;;;20.50;99.90;;;;;;5104685;27;20500;-72
2022/07/26 02:08:25;;;;;;;7.97;2.60;;;20.50;99.90;;;;;;5097232;28;20058;-71
2022/07/26 02:11:00;;;;;;;5.60;2.85;;;20.50;99.90;;;;;;5109586;27;20059;-70
2022/07/26 02:13:31;;;;;;;3.78;2.30;;;20.40;99.90;;;;;;5110003;27;20027;-71
2022/07/26 02:16:00;;;;;;;5.50;2.40;;;20.30;99.90;;;;;;5107828;27;20035;-72
2022/07/26 02:18:28;;;;;;;7.13;2.42;;;20.30;99.90;;;;;;5100369;27;20039;-69
2022/07/26 02:20:54;;;;;;;7.88;2.85;;;20.20;99.90;;;;;;5100724;27;20501;-70
2022/07/26 02:23:20;;;;;;;10.38;2.65;;;20.10;99.90;;;;;;5105418;28;20085;-70
2022/07/26 02:25:46;;;;;;;5.45;2.55;;;20.00;99.90;;;;;;5099167;28;20123;-70
2022/07/26 02:28:12;;;;;;;5.03;2.80;;;19.80;99.90;;;;;;5097044;28;20062;-72
2022/07/26 02:30:38;;;;;;;6.55;2.60;;;19.60;99.90;;;;;;5093847;28;20120;-72
2022/07/26 02:33:04;;;;;;;9.07;2.47;;;19.60;99.90;;;;;;5109657;28;20106;-70
2022/07/26 02:35:30;;;;;;;8.63;2.38;;;19.50;99.90;;;;;;5109822;28;20043;-70
2022/07/26 02:38:01;;;;;;;6.95;2.65;;;19.50;99.90;;;;;;5091933;28;20465;-71
2022/07/26 02:40:27;;;;;;;8.52;2.70;;;19.50;99.90;;;;;;5103592;28;20032;-70
2022/07/26 02:42:53;;;;;;;6.28;2.90;;;19.40;99.90;;;;;;5100709;28;20149;-71
2022/07/26 02:45:19;;;;;;;5.95;2.60;;;19.50;99.90;;;;;;5095817;28;20067;-71
2022/07/26 02:47:46;;;;;;;6.72;2.95;;;19.50;99.90;;;;;;5079968;28;20063;-71
2022/07/26 02:50:14;;;;;;;4.25;2.42;;;19.50;99.90;;;;;;5104599;28;20111;-71
2022/07/26 02:52:40;;;;;;;6.15;2.72;;;19.40;99.90;;;;;;5090469;28;20039;-73
2022/07/26 02:55:06;;;;;;;4.63;2.40;;;19.50;99.90;;;;;;5106519;28;20036;-70
2022/07/26 02:57:31;;;;;;;6.32;2.63;;;19.40;99.90;;;;;;5101707;27;20030;-71
2022/07/26 02:59:57;;;;;;;4.95;2.47;;;19.30;99.90;;;;;;5112726;27;20023;-70
2022/07/26 03:02:23;;;;;;;5.53;2.38;;;19.30;99.90;;;;;;5106613;27;20448;-71
2022/07/26 03:04:48;;;;;;;4.45;2.08;;;19.30;99.90;;;;;;5113608;27;20623;-70
2022/07/26 03:07:14;;;;;;;3.30;1.92;;;19.20;99.90;;;;;;5104071;27;20028;-71
2022/07/26 03:09:39;;;;;;;4.80;2.45;;;19.10;99.90;;;;;;5110094;28;20030;-73
2022/07/26 03:12:05;;;;;;;4.57;2.25;;;19.10;99.90;;;;;;5109801;28;20028;-72
2022/07/26 03:14:31;;;;;;;3.38;2.30;;;19.10;99.90;;;;;;5109194;28;20035;-70
2022/07/26 03:16:57;;;;;;;4.32;2.55;;;19.10;99.90;;;;;;5103424;27;20082;-72
2022/07/26 03:19:22;;;;;;;3.50;2.08;;;19.10;99.90;;;;;;5093030;28;20358;-70
2022/07/26 03:21:48;;;;;;;4.53;2.10;;;19.10;99.90;;;;;;5106894;27;20069;-70
2022/07/26 03:24:13;;;;;;;7.57;2.70;;;19.10;99.90;;;;;;5104388;27;20027;-72
2022/07/26 03:26:39;;;;;;;7.75;2.45;;;19.00;99.90;;;;;;5102813;28;20038;-71
2022/07/26 03:29:05;;;;;;;3.72;2.20;;;19.00;99.90;;;;;;5107678;28;20050;-71
2022/07/26 03:31:31;;;;;;;3.45;2.25;;;19.00;99.90;;;;;;5109476;28;20217;-70
2022/07/26 03:33:56;;;;;;;3.83;2.53;;;19.00;99.90;;;;;;5100779;28;20477;-70
2022/07/26 03:36:22;;;;;;;4.45;2.33;;;19.10;99.90;;;;;;5108661;28;20063;-70
2022/07/26 03:38:48;;;;;;;5.03;2.47;;;19.10;99.90;;;;;;5107003;28;20039;-70
2022/07/26 03:41:13;;;;;;;5.45;2.90;;;19.10;99.90;;;;;;5111751;28;20036;-74
2022/07/26 03:43:39;;;;;;;6.72;2.60;;;19.10;99.90;;;;;;5125588;28;20019;-73
2022/07/26 03:46:05;;;;;;;7.43;2.83;;;19.10;99.90;;;;;;5108122;28;20035;-71
2022/07/26 03:48:30;;;;;;;7.55;2.80;;;19.10;99.90;;;;;;5110036;28;20504;-71
2022/07/26 03:50:56;;;;;;;4.10;2.50;;;19.00;99.90;;;;;;5112787;28;20024;-71
2022/07/26 03:53:22;;;;;;;7.68;2.58;;;19.00;99.90;;;;;;5107420;28;20106;-71
2022/07/26 03:58:32;;;;;;;8.18;2.50;;;18.80;99.90;;;;;;5107526;28;20050;-73
2022/07/26 04:00:58;;;;;;;4.28;2.53;;;18.80;99.90;;;;;;5107089;28;20440;-72
2022/07/26 04:03:24;;;;;;;7.43;2.75;;;18.70;99.90;;;;;;5105944;28;20035;-73
2022/07/26 04:05:49;;;;;;;7.32;2.70;;;18.80;99.90;;;;;;5106248;28;20028;-72
2022/07/26 04:08:15;;;;;;;5.47;2.50;;;18.80;99.90;;;;;;5102018;28;20036;-74
2022/07/26 04:10:45;;;;;;;7.00;2.42;;;18.80;99.90;;;;;;5102209;28;20157;-73
2022/07/26 04:13:10;;;;;;;5.18;2.58;;;18.80;99.90;;;;;;5109516;28;20034;-71
2022/07/26 04:15:36;;;;;;;6.47;3.05;;;18.80;99.90;;;;;;5104996;28;20032;-71
2022/07/26 04:18:02;;;;;;;13.40;2.85;;;18.80;99.90;;;;;;5106955;28;20019;-73
2022/07/26 04:20:27;;;;;;;8.50;2.80;;;18.90;99.90;;;;;;5104759;28;20032;-72
2022/07/26 04:22:53;;;;;;;7.32;3.00;;;19.00;99.90;;;;;;5098127;28;20039;-72
2022/07/26 04:25:19;;;;;;;7.85;2.90;;;19.00;99.90;;;;;;5109096;28;20038;-72
2022/07/26 04:27:44;;;;;;;4.85;2.53;;;19.00;99.90;;;;;;5109409;28;20149;-71
2022/07/26 04:30:10;;;;;;;4.43;2.47;;;19.10;99.90;;;;;;5108495;28;20164;-73
2022/07/26 04:32:36;;;;;;;4.85;2.50;;;19.10;99.90;;;;;;5112136;27;20606;-70
2022/07/26 04:35:02;;;;;;;3.97;2.70;;;19.00;99.90;;;;;;5083022;28;20032;-70
2022/07/26 04:37:31;;;;;;;4.78;2.60;;;19.10;99.90;;;;;;5111827;27;20055;-70
2022/07/26 04:39:57;;;;;;;4.18;2.22;;;19.10;99.90;;;;;;5077627;27;20036;-73
2022/07/26 04:42:23;;;;;;;4.90;2.83;;;19.10;99.90;;;;;;5115294;27;20372;-71
2022/07/26 04:44:48;;;;;;;7.68;2.30;;;19.10;99.90;;;;;;5093638;27;20036;-72
2022/07/26 04:47:14;;;;;;;5.03;2.63;;;19.10;99.90;;;;;;5102192;27;20043;-73
2022/07/26 04:49:40;;;;;;;5.15;2.47;;;19.00;99.90;;;;;;5111892;27;20124;-70
2022/07/26 04:52:05;;;;;;;4.57;2.70;;;19.00;99.90;;;;;;5112829;28;20478;-72
2022/07/26 04:54:31;;;;;;;3.50;2.58;;;19.00;99.90;;;;;;5111773;28;20031;-71
2022/07/26 04:56:56;;;;;;;5.03;2.55;;;19.00;99.90;;;;;;5112703;28;20038;-73
2022/07/26 04:59:22;;;;;;;4.03;2.70;;;19.00;99.90;;;;;;5110239;28;20035;-71
2022/07/26 05:01:48;;;;;;;4.13;2.30;;;19.00;99.90;;;;;;5114034;27;20027;-73
2022/07/26 05:04:13;;;;;;;4.47;2.55;;;19.00;99.90;;;;;;5122470;27;20031;-72
2022/07/26 05:06:39;;;;;;;3.97;2.53;;;19.00;99.90;;;;;;5131873;27;20489;-73
2022/07/26 05:09:05;;;;;;;5.10;3.10;;;19.00;99.90;;;;;;5133124;27;20038;-72
2022/07/26 05:11:30;;;;;;;6.00;2.70;;;19.10;99.90;;;;;;5116762;27;20526;-72
2022/07/26 05:13:56;;;;;;;4.15;2.80;;;19.20;99.90;;;;;;5110079;27;20032;-72
2022/07/26 05:16:22;;;;;;;6.70;2.70;;;19.40;99.90;;;;;;5111628;27;20036;-71
2022/07/26 05:18:47;;;;;;;5.43;2.40;;;19.60;99.90;;;;;;5097522;27;20028;-71
2022/07/26 05:21:13;;;;;;;5.05;2.90;;;19.70;99.90;;;;;;5110643;28;20119;-73
2022/07/26 05:23:39;;;;;;;9.02;2.88;;;19.70;99.90;;;;;;5111957;27;20027;-73
2022/07/26 05:26:04;;;;;;;6.38;2.78;;;19.90;99.90;;;;;;5094743;27;20032;-70
2022/07/26 05:28:30;;;;;;;6.72;2.70;;;19.90;99.90;;;;;;5084733;27;20051;-70
2022/07/26 05:30:56;;;;;;;4.40;2.38;;;19.90;99.90;;;;;;5101775;27;20039;-70
2022/07/26 05:33:21;;;;;;;3.35;2.20;;;20.00;99.90;;;;;;5090577;28;20035;-71
2022/07/26 05:35:47;;;;;;;5.00;2.40;;;20.00;99.90;;;;;;5091241;28;20098;-70
2022/07/26 05:38:12;;;;;;;4.80;2.65;;;20.10;99.90;;;;;;5104773;28;20023;-71
2022/07/26 05:40:38;;;;;;;6.60;2.92;;;20.10;99.90;;;;;;5110741;28;20614;-71
2022/07/26 05:43:04;;;;;;;8.50;2.60;;;20.10;99.90;;;;;;5110933;28;20024;-72
2022/07/26 05:45:30;;;;;;;8.75;2.83;;;20.10;99.90;;;;;;5110761;27;20114;-70
2022/07/26 05:47:55;;;;;;;5.05;2.53;;;20.10;99.90;;;;;;5110768;28;20454;-71
2022/07/26 05:50:21;;;;;;;6.82;2.60;;;20.00;99.90;;;;;;5110850;28;20030;-74
2022/07/26 05:52:47;;;;;;;5.88;2.40;;;19.80;99.90;;;;;;5111626;28;20446;-70
2022/07/26 05:55:13;;;;;;;4.43;2.63;;;19.90;99.90;;;;;;5111439;28;20400;-69
2022/07/26 05:57:46;;;;;;;4.28;2.53;;;20.00;99.90;;;;;;5109644;27;20028;-69
2022/07/26 06:00:12;;;;;;;4.55;2.50;;;20.10;99.90;;;;;;5111293;28;20041;-69
2022/07/26 06:02:38;;;;;;;5.63;2.53;;;20.20;99.90;;;;;;5110763;28;20035;-68
2022/07/26 06:05:04;;;;;;;4.78;2.40;;;20.20;99.90;;;;;;5110956;28;20485;-69
2022/07/26 06:07:30;;;;;;;3.25;2.25;;;20.10;99.90;;;;;;5108842;28;20038;-69
2022/07/26 06:09:56;;;;;;;7.18;2.30;;;20.20;99.90;;;;;;5111143;28;20031;-68
2022/07/26 06:12:21;;;;;;;6.70;2.80;;;20.20;99.90;;;;;;5110533;28;20032;-74
2022/07/26 06:14:47;;;;;;;6.78;2.75;;;20.20;99.90;;;;;;5110639;28;20481;-69
2022/07/26 06:17:13;;;;;;;5.50;2.58;;;20.30;99.90;;;;;;5109712;28;20035;-68
2022/07/26 06:19:38;;;;;;;7.60;2.67;;;20.30;99.90;;;;;;5110293;28;20059;-69
2022/07/26 06:22:04;;;;;;;4.30;2.75;;;20.30;99.90;;;;;;5111215;28;20028;-69
2022/07/26 06:24:30;;;;;;;7.18;3.00;;;20.40;99.90;;;;;;5109882;28;20032;-69
2022/07/26 06:26:56;;;;;;;6.38;2.70;;;20.40;99.90;;;;;;5110346;28;20062;-69
2022/07/26 06:29:22;;;;;;;7.05;2.72;;;20.40;99.90;;;;;;5117185;27;20122;-72
2022/07/26 06:31:48;;;;;;;4.28;2.55;;;20.50;99.90;;;;;;5111962;27;20035;-70
2022/07/26 06:34:14;;;;;;;9.10;2.65;;;20.60;99.90;;;;;;5104905;27;20035;-69
2022/07/26 06:36:40;;;;;;;7.35;2.90;;;20.60;99.90;;;;;;5079791;28;20802;-70
2022/07/26 06:39:06;;;;;;;4.20;2.33;;;20.70;99.90;;;;;;5105012;27;20034;-70
2022/07/26 06:41:31;;;;;;;6.85;2.67;;;20.80;99.90;;;;;;5120767;27;20111;-69
2022/07/26 06:43:57;;;;;;;6.03;2.80;;;20.80;99.90;;;;;;5110544;28;20036;-69
2022/07/26 06:46:23;;;;;;;4.43;3.03;;;20.90;99.90;;;;;;5107331;27;20035;-70
2022/07/26 06:48:49;;;;;;;4.28;2.88;;;21.00;99.90;;;;;;5113459;27;20043;-71
2022/07/26 06:51:14;;;;;;;4.88;2.95;;;21.20;99.90;;;;;;5110190;28;20032;-71
2022/07/26 06:53:41;;;;;;;5.35;3.20;;;21.20;99.90;;;;;;5110714;27;20423;-70
2022/07/26 06:56:07;;;;;;;11.80;3.92;;;21.30;99.90;;;;;;5109607;28;20069;-69
2022/07/26 06:58:33;;;;;;;8.50;3.30;;;21.30;99.90;;;;;;5107756;28;20024;-72
2022/07/26 07:00:58;;;;;;;4.18;2.83;;;21.20;99.90;;;;;;5091385;28;20369;-72
2022/07/26 07:03:24;;;;;;;8.43;3.20;;;21.20;99.90;;;;;;5109397;28;20032;-72
2022/07/26 07:05:50;;;;;;;4.40;2.80;;;21.30;99.90;;;;;;5109576;28;20091;-72
2022/07/26 07:08:16;;;;;;;6.00;3.00;;;21.40;99.90;;;;;;5108621;27;20043;-71
2022/07/26 07:10:42;;;;;;;4.88;2.83;;;21.30;99.90;;;;;;5109356;28;20124;-71
2022/07/26 07:13:08;;;;;;;8.57;3.13;;;21.20;99.90;;;;;;5110131;28;20666;-69
2022/07/26 07:15:33;;;;;;;5.85;2.95;;;21.30;99.90;;;;;;5091070;28;20044;-72
2022/07/26 07:17:59;;;;;;;10.02;2.78;;;21.10;99.90;;;;;;5109203;28;20040;-71
2022/07/26 07:20:27;;;;;;;7.10;3.42;;;21.00;99.90;;;;;;5109471;28;20046;-74
2022/07/26 07:22:53;;;;;;;4.15;2.95;;;20.90;99.90;;;;;;5122533;27;20042;-70
2022/07/26 07:25:19;;;;;;;4.80;3.33;;;20.80;99.90;;;;;;5130227;27;20050;-71
2022/07/26 07:27:44;;;;;;;5.10;3.17;;;20.80;99.90;;;;;;5122351;28;20618;-70
2022/07/26 07:30:11;;;;;;;5.82;3.03;;;20.70;99.90;;;;;;5108325;28;20034;-73
2022/07/26 07:32:36;;;;;;;10.88;3.30;;;20.80;99.90;;;;;;5109023;28;20033;-70
2022/07/26 07:35:03;;;;;;;7.65;3.47;;;21.00;99.90;;;;;;5109335;28;20553;-70
2022/07/26 07:37:28;;;;;;;6.22;3.20;;;21.10;99.90;;;;;;5108391;28;20111;-72
2022/07/26 07:39:56;;;;;;;9.02;3.28;;;20.90;99.90;;;;;;5109807;28;20434;-70
2022/07/26 07:42:22;;;;;;;7.47;3.10;;;21.00;99.90;;;;;;5109769;28;20031;-70
2022/07/26 07:44:48;;;;;;;6.30;3.42;;;21.20;99.90;;;;;;5109021;28;20027;-70
2022/07/26 07:47:14;;;;;;;4.68;2.88;;;21.40;99.90;;;;;;5108924;28;20040;-70
2022/07/26 07:49:40;;;;;;;15.13;3.20;;;21.50;99.90;;;;;;5108414;28;20174;-72
2022/07/26 07:52:05;;;;;;;6.97;3.05;;;21.70;99.90;;;;;;5109702;28;20019;-70
2022/07/26 07:54:31;;;;;;;5.50;3.17;;;22.00;99.90;;;;;;5107418;28;20137;-68
2022/07/26 07:56:57;;;;;;;6.90;3.13;;;22.00;99.90;;;;;;5109668;28;20087;-69
2022/07/26 07:59:23;;;;;;;5.88;3.28;;;22.10;99.90;;;;;;5109488;28;20023;-70
2022/07/26 08:01:49;;;;;;;10.23;3.45;;;22.00;99.90;;;;;;5109171;28;20030;-71
2022/07/26 08:04:14;;;;;;;6.95;3.05;;;22.00;99.90;;;;;;5109589;28;20119;-69
2022/07/26 08:06:40;;;;;;;5.38;3.10;;;22.10;99.90;;;;;;5106575;28;20115;-71
2022/07/26 08:09:06;;;;;;;6.25;3.10;;;22.20;99.90;;;;;;5112606;28;20035;-71
2022/07/26 08:11:33;;;;;;;5.90;2.85;;;22.30;99.90;;;;;;5112641;28;20035;-72
2022/07/26 08:13:58;;;;;;;6.30;3.00;;;22.40;99.90;;;;;;5113491;28;20027;-70
2022/07/26 08:16:24;;;;;;;7.82;3.15;;;22.40;99.90;;;;;;5111711;28;20036;-70
2022/07/26 08:18:50;;;;;;;5.13;2.95;;;22.40;99.90;;;;;;5112685;28;20935;-71
2022/07/26 08:21:15;;;;;;;16.80;2.90;;;22.40;99.90;;;;;;5113348;28;20106;-70
2022/07/26 08:23:41;;;;;;;7.85;2.97;;;22.50;99.90;;;;;;5112603;28;20073;-69
2022/07/26 08:26:07;;;;;;;7.50;2.92;;;22.70;99.90;;;;;;5093125;28;20032;-72
2022/07/26 08:28:33;;;;;;;10.63;3.10;;;22.50;99.90;;;;;;5112500;28;20035;-70
2022/07/26 08:30:58;;;;;;;7.15;2.85;;;22.20;99.90;;;;;;5113002;28;20034;-72
2022/07/26 08:33:24;;;;;;;7.22;2.53;;;22.30;99.90;;;;;;5094748;28;20032;-69
2022/07/26 08:35:50;;;;;;;4.78;2.50;;;22.50;99.90;;;;;;5111046;27;20127;-70
2022/07/26 08:38:16;;;;;;;4.93;2.28;;;22.40;99.90;;;;;;5094990;28;20110;-71
2022/07/26 08:40:41;;;;;;;7.47;2.80;;;22.50;99.90;;;;;;5112185;28;20102;-70
2022/07/26 08:43:07;;;;;;;9.23;2.65;;;22.80;99.90;;;;;;5113040;28;20027;-70
2022/07/26 08:45:34;;;;;;;3.50;2.33;;;22.90;99.90;;;;;;5110328;28;20023;-71
2022/07/26 08:48:02;;;;;;;4.25;2.00;;;23.00;99.90;;;;;;5112813;28;20028;-75
2022/07/26 08:50:28;;;;;;;3.72;2.15;;;23.10;99.90;;;;;;5113080;28;20100;-72
2022/07/26 08:53:00;;;;;;;5.97;2.67;;;23.10;99.90;;;;;;5112521;28;20054;-69
2022/07/26 08:55:26;;;;;;;18.23;3.78;;;23.20;99.90;;;;;;5110876;28;20442;-70
2022/07/26 08:57:52;;;;;;;7.88;2.20;;;23.20;99.90;;;;;;5111750;28;20035;-72
2022/07/26 09:00:18;;;;;;;7.10;2.47;;;23.10;99.90;;;;;;5112541;28;20035;-70
2022/07/26 09:02:44;;;;;;;8.38;2.50;;;22.60;99.90;;;;;;5111682;28;20031;-70
2022/07/26 09:05:10;;;;;;;9.07;2.53;;;22.40;99.90;;;;;;5110285;28;20491;-70
2022/07/26 09:07:38;;;;;;;5.55;2.70;;;22.80;99.90;;;;;;5111669;28;20071;-70
2022/07/26 09:10:10;;;;;;;5.57;2.17;;;22.80;99.90;;;;;;5112303;28;20028;-73
2022/07/26 09:12:37;;;;;;;8.70;2.80;;;22.70;99.90;;;;;;5114596;27;20055;-71
2022/07/26 09:15:04;;;;;;;9.18;2.38;;;22.70;99.90;;;;;;5130578;27;20031;-72
2022/07/26 09:17:43;;;;;;;8.63;2.70;;;23.10;99.90;;;;;;5093694;28;20027;-74
2022/07/26 09:20:17;;;;;;;5.43;2.28;;;23.20;99.90;;;;;;5111664;28;20695;-69
2022/07/26 09:23:02;;;;;;;4.40;2.20;;;22.90;99.90;;;;;;5111649;28;20107;-70
2022/07/26 09:25:37;;;;;;;9.35;2.30;;;22.80;99.90;;;;;;5111387;28;20176;-70
2022/07/26 09:28:04;;;;;;;5.97;2.22;;;23.00;99.90;;;;;;5112151;28;20056;-72
2022/07/26 09:30:31;;;;;;;7.03;2.30;;;23.40;99.90;;;;;;5111917;28;20020;-73
2022/07/26 09:33:05;;;;;;;5.82;2.45;;;23.50;99.90;;;;;;5111344;28;20465;-70
2022/07/26 09:35:38;;;;;;;7.43;2.10;;;23.60;99.90;;;;;;5110501;27;20105;-72
2022/07/26 09:38:16;;;;;;;12.25;2.17;;;24.20;99.90;;;;;;5093487;28;20073;-71
2022/07/26 09:40:42;;;;;;;5.57;1.90;;;24.50;99.90;;;;;;5108997;28;20060;-71
2022/07/26 09:43:08;;;;;;;8.15;2.13;;;24.40;99.20;;;;;;5110805;28;20419;-71
2022/07/26 09:45:35;;;;;;;3.60;1.70;;;24.30;99.00;;;;;;5092785;28;20028;-75
2022/07/26 09:48:02;;;;;;;6.85;2.05;;;23.90;96.80;;;;;;5110928;28;20473;-70
2022/07/26 09:50:31;;;;;;;6.40;2.00;;;23.80;99.20;;;;;;5110154;28;20115;-72
2022/07/26 09:53:00;;;;;;;7.20;2.10;;;24.20;97.90;;;;;;5110904;28;20469;-71
2022/07/26 09:55:25;;;;;;;11.48;1.77;;;24.40;97.30;;;;;;5111590;28;20035;-72
2022/07/26 09:57:52;;;;;;;3.72;2.03;;;24.60;97.30;;;;;;5110602;28;20023;-70
2022/07/26 10:00:18;;;;;;;5.53;2.00;;;24.70;94.40;;;;;;5110989;27;20102;-72
2022/07/26 10:02:43;;;;;;;5.03;2.10;;;24.80;95.60;;;;;;5108424;28;20548;-72
2022/07/26 10:05:09;;;;;;;6.50;1.98;;;24.80;95.60;;;;;;5111254;28;20043;-71
2022/07/26 10:07:36;;;;;;;5.57;1.52;;;24.80;94.50;;;;;;5110940;28;20077;-72
2022/07/26 10:10:08;;;;;;;6.78;1.88;;;24.70;94.30;;;;;;5111249;28;20034;-70
2022/07/26 10:12:34;;;;;;;3.90;1.80;;;24.70;91.80;;;;;;5109731;28;20039;-73
2022/07/26 10:15:00;;;;;;;4.43;1.52;;;24.80;94.50;;;;;;5109905;28;20035;-73
2022/07/26 10:17:26;;;;;;;7.93;1.70;;;24.60;92.30;;;;;;5110982;28;20461;-70
2022/07/26 10:19:54;;;;;;;3.60;1.58;;;24.80;95.50;;;;;;5110297;28;20030;-72
2022/07/26 10:22:23;;;;;;;3.83;1.58;;;25.10;92.80;;;;;;5110070;28;20061;-72
2022/07/26 10:24:49;;;;;;;9.73;1.80;;;25.00;91.70;;;;;;5110021;28;20031;-71
2022/07/26 10:27:40;;;;;;;5.05;1.98;;;24.80;92.40;;;;;;5110860;28;20110;-70
2022/07/26 10:30:18;;;;;;;8.45;1.58;;;24.50;92.60;;;;;;5091760;28;20063;-73
2022/07/26 10:32:55;;;;;;;2.47;1.52;;;24.90;93.70;;;;;;5108527;28;20039;-72
2022/07/26 10:36:04;;;;;;;4.03;1.60;;;25.20;90.90;;;;;;5110297;28;20508;-72
2022/07/26 10:38:25;;;;;;;5.63;2.00;;;25.00;92.60;;;;;;5106568;28;20032;-70
2022/07/26 10:41:06;;;;;;;4.38;2.08;;;25.30;93.90;;;;;;5109776;28;20035;-70
2022/07/26 10:43:33;;;;;;;4.88;1.70;;;25.80;91.40;;;;;;5089961;28;20367;-70
2022/07/26 10:46:17;;;;;;;7.28;1.50;;;25.70;87.80;;;;;;5089372;28;20023;-70
2022/07/26 10:48:57;;;;;;;3.40;1.30;;;24.90;89.40;;;;;;5089255;28;20035;-71
2022/07/26 10:51:28;;;;;;;7.50;1.23;;;24.40;92.00;;;;;;5093375;28;20047;-72
2022/07/26 10:54:07;;;;;;;3.08;1.30;;;24.20;90.60;;;;;;5109681;28;20149;-71
2022/07/26 10:56:33;;;;;;;5.90;1.30;;;24.60;94.00;;;;;;5110427;28;20039;-72
2022/07/26 10:58:59;;;;;;;2.53;1.30;;;25.10;90.80;;;;;;5109466;28;20169;-71
2022/07/26 11:01:39;;;;;;;6.63;1.23;;;25.30;91.60;;;;;;5109310;28;20024;-72
2022/07/26 11:04:16;;;;;;;7.88;1.48;;;25.50;89.70;;;;;;5109551;28;20036;-71
2022/07/26 11:06:42;;;;;;;2.85;1.48;;;25.80;90.00;;;;;;5114714;27;20076;-71
2022/07/26 11:09:11;;;;;;;3.65;1.55;;;26.30;90.60;;;;;;5130579;27;20035;-72
2022/07/26 11:11:37;;;;;;;6.72;1.45;;;26.00;84.20;;;;;;5124378;27;20035;-72
2022/07/26 11:14:14;;;;;;;3.50;1.40;;;25.50;92.10;;;;;;5109732;28;20084;-69
2022/07/26 11:16:44;;;;;;;1.55;0.98;;;25.90;91.90;;;;;;5109664;28;20031;-74
2022/07/26 11:19:20;;;;;;;5.78;1.50;;;26.20;90.80;;;;;;5110028;28;20046;-71
2022/07/26 11:21:53;;;;;;;2.67;1.23;;;26.10;87.90;;;;;;5108372;28;20028;-71
2022/07/26 11:24:20;;;;;;;3.85;1.42;;;26.20;91.90;;;;;;5109733;28;20034;-71
2022/07/26 11:26:47;;;;;;;5.55;1.40;;;26.70;90.00;;;;;;5109128;28;20076;-71
2022/07/26 11:29:13;;;;;;;5.30;1.35;;;26.50;84.10;;;;;;5091641;28;20034;-69
2022/07/26 11:31:41;;;;;;;4.40;1.35;;;26.20;83.30;;;;;;5108696;28;20426;-72
2022/07/26 11:34:21;;;;;;;2.70;1.25;;;25.90;83.40;;;;;;5109930;28;20098;-73
2022/07/26 11:36:47;;;;;;;6.38;1.42;;;26.10;86.30;;;;;;5108740;28;20097;-70
2022/07/26 11:39:24;;;;;;;2.50;1.30;;;26.40;83.60;;;;;;5109731;28;20023;-71
2022/07/26 11:41:55;;;;;;;1.80;1.20;;;26.60;84.40;;;;;;5109091;28;20020;-73
2022/07/26 11:44:22;;;;;;;7.13;1.67;;;26.70;86.80;;;;;;5114051;28;20028;-70
2022/07/26 11:46:49;;;;;;;5.28;1.85;;;27.30;87.10;;;;;;5113185;28;20492;-68
2022/07/26 11:49:23;;;;;;;1.98;1.20;;;27.40;86.90;;;;;;5114056;28;20032;-71
2022/07/26 11:51:55;;;;;;;4.00;1.40;;;26.80;82.50;;;;;;5112687;28;20205;-70
2022/07/26 11:54:22;;;;;;;2.35;1.20;;;26.20;79.60;;;;;;5113812;28;20031;-71
2022/07/26 11:56:51;;;;;;;3.58;1.75;;;26.00;80.00;;;;;;5113135;28;20049;-70
2022/07/26 11:59:18;;;;;;;5.25;1.73;;;26.10;82.30;;;;;;5113894;28;20038;-68
2022/07/26 12:01:47;;;;;;;7.63;1.73;;;26.00;80.30;;;;;;5114508;27;20039;-72
2022/07/26 12:04:24;;;;;;;3.50;1.85;;;26.10;82.40;;;;;;5107955;27;20055;-70
2022/07/26 12:06:52;;;;;;;6.35;1.63;;;26.40;83.20;;;;;;5100141;27;20456;-71
2022/07/26 12:09:30;;;;;;;4.88;1.40;;;26.40;81.70;;;;;;5122551;27;20031;-69
2022/07/26 12:11:56;;;;;;;6.82;1.52;;;26.50;78.50;;;;;;5102498;27;20054;-71
2022/07/26 12:14:30;;;;;;;3.40;1.50;;;25.80;80.80;;;;;;5104250;27;20067;-72
2022/07/26 12:16:57;;;;;;;3.38;1.60;;;25.30;81.00;;;;;;5091995;28;20028;-69
2022/07/26 12:19:28;;;;;;;2.10;1.20;;;25.10;85.90;;;;;;5103465;27;20051;-69
2022/07/26 12:21:54;;;;;;;3.42;1.30;;;25.50;84.70;;;;;;5097334;28;20036;-70
2022/07/26 12:24:40;;;;;;;3.70;1.60;;;25.80;80.00;;;;;;5099973;27;20073;-72
2022/07/26 12:27:10;;;;;;;3.08;1.20;;;25.10;80.10;;;;;;5114219;27;20046;-67
2022/07/26 12:29:37;;;;;;;4.30;1.30;;;24.60;80.70;;;;;;5112572;27;20102;-68
2022/07/26 12:32:15;;;;;;;2.55;1.20;;;25.00;83.00;;;;;;5104113;28;20105;-71
2022/07/26 12:34:55;;;;;;;2.50;1.10;;;25.60;82.50;;;;;;5093622;27;20114;-72
2022/07/26 12:37:21;;;;;;;2.60;1.35;;;25.50;79.80;;;;;;5092531;28;20044;-69
2022/07/26 12:40:37;;;;;;;4.68;1.23;;;25.80;80.60;;;;;;5121137;27;20031;-68
2022/07/26 12:43:02;;;;;;;3.78;1.15;;;25.70;79.70;;;;;;5028616;28;20617;-69
2022/07/26 12:45:32;;;;;;;2.83;1.48;;;25.60;80.10;;;;;;5029541;28;20125;-69
2022/07/26 12:48:00;;;;;;;1.52;1.13;;;25.90;79.40;;;;;;5032686;28;20053;-69
2022/07/26 12:50:27;;;;;;;2.45;1.05;;;26.00;76.50;;;;;;5029701;28;20045;-67